sensor_id;sensor_type;location;lat;lon;timestamp;P1;durP1;ratioP1;P2;durP2;ratioP2
3311;SDS011;1668;49.648;8.570;2023-02-11T00:00:57;39.33;;;23.47;;
3311;SDS011;1668;49.648;8.570;2023-02-11T00:03:24;41.83;;;24.13;;
3311;SDS011;1668;49.648;8.570;2023-02-11T00:05:57;40.00;;;22.83;;
3311;SDS011;1668;49.648;8.570;2023-02-11T00:08:24;39.23;;;23.83;;
3311;SDS011;1668;49.648;8.570;2023-02-11T00:10:51;39.17;;;23.03;;
3311;SDS011;1668;49.648;8.570;2023-02-11T00:13:20;43.80;;;24.33;;
3311;SDS011;1668;49.648;8.570;2023-02-11T00:15:48;41.13;;;23.10;;
3311;SDS011;1668;49.648;8.570;2023-02-11T00:18:15;41.20;;;23.27;;
3311;SDS011;1668;49.648;8.570;2023-02-11T00:20:42;40.37;;;22.80;;
3311;SDS011;1668;49.648;8.570;2023-02-11T00:23:09;39.93;;;21.93;;
3311;SDS011;1668;49.648;8.570;2023-02-11T00:25:37;39.27;;;22.53;;
3311;SDS011;1668;49.648;8.570;2023-02-11T00:28:05;37.23;;;22.67;;
3311;SDS011;1668;49.648;8.570;2023-02-11T00:30:33;44.47;;;23.90;;
3311;SDS011;1668;49.648;8.570;2023-02-11T00:33:00;36.60;;;21.30;;
3311;SDS011;1668;49.648;8.570;2023-02-11T00:35:27;39.57;;;21.90;;
3311;SDS011;1668;49.648;8.570;2023-02-11T00:37:55;38.17;;;21.50;;
3311;SDS011;1668;49.648;8.570;2023-02-11T00:40:22;35.73;;;21.63;;
3311;SDS011;1668;49.648;8.570;2023-02-11T00:42:49;40.03;;;20.90;;
3311;SDS011;1668;49.648;8.570;2023-02-11T00:45:16;36.97;;;21.40;;
3311;SDS011;1668;49.648;8.570;2023-02-11T00:47:46;35.33;;;20.87;;
3311;SDS011;1668;49.648;8.570;2023-02-11T00:50:13;37.33;;;21.40;;
3311;SDS011;1668;49.648;8.570;2023-02-11T00:52:39;40.83;;;21.70;;
3311;SDS011;1668;49.648;8.570;2023-02-11T00:55:07;37.40;;;20.90;;
3311;SDS011;1668;49.648;8.570;2023-02-11T00:57:34;41.67;;;23.17;;
3311;SDS011;1668;49.648;8.570;2023-02-11T01:00:01;39.97;;;22.57;;
3311;SDS011;1668;49.648;8.570;2023-02-11T01:02:28;35.27;;;21.27;;
3311;SDS011;1668;49.648;8.570;2023-02-11T01:05:08;37.87;;;20.97;;
3311;SDS011;1668;49.648;8.570;2023-02-11T01:07:36;35.80;;;21.03;;
3311;SDS011;1668;49.648;8.570;2023-02-11T01:10:03;34.90;;;21.07;;
3311;SDS011;1668;49.648;8.570;2023-02-11T01:12:30;35.90;;;20.60;;
3311;SDS011;1668;49.648;8.570;2023-02-11T01:14:57;34.17;;;19.93;;
3311;SDS011;1668;49.648;8.570;2023-02-11T01:17:24;39.23;;;21.30;;
3311;SDS011;1668;49.648;8.570;2023-02-11T01:19:50;34.77;;;20.87;;
3311;SDS011;1668;49.648;8.570;2023-02-11T01:22:19;34.03;;;19.53;;
3311;SDS011;1668;49.648;8.570;2023-02-11T01:24:45;37.50;;;21.13;;
3311;SDS011;1668;49.648;8.570;2023-02-11T01:27:13;36.37;;;20.23;;
3311;SDS011;1668;49.648;8.570;2023-02-11T01:29:39;35.20;;;19.80;;
3311;SDS011;1668;49.648;8.570;2023-02-11T01:32:06;34.10;;;20.73;;
3311;SDS011;1668;49.648;8.570;2023-02-11T01:34:33;36.90;;;20.93;;
3311;SDS011;1668;49.648;8.570;2023-02-11T01:37:00;35.40;;;21.33;;
3311;SDS011;1668;49.648;8.570;2023-02-11T01:39:31;38.27;;;20.90;;
3311;SDS011;1668;49.648;8.570;2023-02-11T01:41:58;35.37;;;19.77;;
3311;SDS011;1668;49.648;8.570;2023-02-11T01:44:26;35.40;;;20.13;;
3311;SDS011;1668;49.648;8.570;2023-02-11T01:46:55;35.93;;;20.63;;
3311;SDS011;1668;49.648;8.570;2023-02-11T01:49:24;34.97;;;19.10;;
3311;SDS011;1668;49.648;8.570;2023-02-11T01:51:54;33.80;;;19.60;;
3311;SDS011;1668;49.648;8.570;2023-02-11T01:54:25;34.13;;;19.53;;
3311;SDS011;1668;49.648;8.570;2023-02-11T01:57:15;33.40;;;18.77;;
3311;SDS011;1668;49.648;8.570;2023-02-11T01:59:51;30.93;;;18.90;;
3311;SDS011;1668;49.648;8.570;2023-02-11T02:02:25;34.93;;;20.00;;
3311;SDS011;1668;49.648;8.570;2023-02-11T02:04:57;32.10;;;19.03;;
3311;SDS011;1668;49.648;8.570;2023-02-11T02:07:31;32.80;;;19.47;;
3311;SDS011;1668;49.648;8.570;2023-02-11T02:10:04;34.07;;;20.47;;
3311;SDS011;1668;49.648;8.570;2023-02-11T02:12:34;35.17;;;19.93;;
3311;SDS011;1668;49.648;8.570;2023-02-11T02:15:17;34.67;;;19.40;;
3311;SDS011;1668;49.648;8.570;2023-02-11T02:17:47;32.27;;;19.30;;
3311;SDS011;1668;49.648;8.570;2023-02-11T02:20:31;30.63;;;19.47;;
3311;SDS011;1668;49.648;8.570;2023-02-11T02:23:27;30.97;;;17.73;;
3311;SDS011;1668;49.648;8.570;2023-02-11T02:26:21;31.83;;;19.33;;
3311;SDS011;1668;49.648;8.570;2023-02-11T02:29:08;34.33;;;18.97;;
3311;SDS011;1668;49.648;8.570;2023-02-11T02:35:08;30.47;;;18.27;;
3311;SDS011;1668;49.648;8.570;2023-02-11T02:37:43;34.37;;;19.27;;
3311;SDS011;1668;49.648;8.570;2023-02-11T02:40:20;33.30;;;18.63;;
3311;SDS011;1668;49.648;8.570;2023-02-11T02:42:52;31.73;;;18.90;;
3311;SDS011;1668;49.648;8.570;2023-02-11T02:45:21;32.37;;;19.40;;
3311;SDS011;1668;49.648;8.570;2023-02-11T02:47:49;33.43;;;18.77;;
3311;SDS011;1668;49.648;8.570;2023-02-11T02:50:16;34.50;;;19.50;;
3311;SDS011;1668;49.648;8.570;2023-02-11T02:52:55;32.27;;;18.37;;
3311;SDS011;1668;49.648;8.570;2023-02-11T02:55:41;29.73;;;18.77;;
3311;SDS011;1668;49.648;8.570;2023-02-11T02:58:25;30.50;;;18.87;;
3311;SDS011;1668;49.648;8.570;2023-02-11T03:01:18;34.23;;;19.43;;
3311;SDS011;1668;49.648;8.570;2023-02-11T03:03:53;34.30;;;19.60;;
3311;SDS011;1668;49.648;8.570;2023-02-11T03:06:29;31.50;;;18.70;;
3311;SDS011;1668;49.648;8.570;2023-02-11T03:09:00;35.47;;;20.27;;
3311;SDS011;1668;49.648;8.570;2023-02-11T03:11:31;29.60;;;19.13;;
3311;SDS011;1668;49.648;8.570;2023-02-11T03:13:59;34.50;;;19.53;;
3311;SDS011;1668;49.648;8.570;2023-02-11T03:16:28;30.30;;;17.90;;
3311;SDS011;1668;49.648;8.570;2023-02-11T03:19:02;37.10;;;18.63;;
3311;SDS011;1668;49.648;8.570;2023-02-11T03:21:32;36.13;;;20.27;;
3311;SDS011;1668;49.648;8.570;2023-02-11T03:24:05;30.17;;;18.37;;
3311;SDS011;1668;49.648;8.570;2023-02-11T03:26:36;33.80;;;20.07;;
3311;SDS011;1668;49.648;8.570;2023-02-11T03:29:09;30.30;;;19.03;;
3311;SDS011;1668;49.648;8.570;2023-02-11T03:31:41;35.60;;;20.10;;
3311;SDS011;1668;49.648;8.570;2023-02-11T03:34:18;35.87;;;19.60;;
3311;SDS011;1668;49.648;8.570;2023-02-11T03:36:52;33.20;;;19.33;;
3311;SDS011;1668;49.648;8.570;2023-02-11T03:39:23;31.80;;;18.40;;
3311;SDS011;1668;49.648;8.570;2023-02-11T03:41:51;31.87;;;19.23;;
3311;SDS011;1668;49.648;8.570;2023-02-11T03:44:22;33.97;;;19.30;;
3311;SDS011;1668;49.648;8.570;2023-02-11T03:46:54;34.57;;;19.27;;
3311;SDS011;1668;49.648;8.570;2023-02-11T03:49:23;37.00;;;19.83;;
3311;SDS011;1668;49.648;8.570;2023-02-11T03:51:52;33.57;;;19.70;;
3311;SDS011;1668;49.648;8.570;2023-02-11T03:54:22;37.53;;;20.40;;
3311;SDS011;1668;49.648;8.570;2023-02-11T03:56:53;30.87;;;19.40;;
3311;SDS011;1668;49.648;8.570;2023-02-11T03:59:22;36.27;;;18.77;;
3311;SDS011;1668;49.648;8.570;2023-02-11T04:01:48;35.40;;;20.07;;
3311;SDS011;1668;49.648;8.570;2023-02-11T04:04:15;36.93;;;21.27;;
3311;SDS011;1668;49.648;8.570;2023-02-11T04:06:44;36.80;;;20.30;;
3311;SDS011;1668;49.648;8.570;2023-02-11T04:09:11;37.90;;;20.50;;
3311;SDS011;1668;49.648;8.570;2023-02-11T04:11:39;32.40;;;19.37;;
3311;SDS011;1668;49.648;8.570;2023-02-11T04:14:05;35.10;;;20.50;;
3311;SDS011;1668;49.648;8.570;2023-02-11T04:16:32;35.07;;;20.00;;
3311;SDS011;1668;49.648;8.570;2023-02-11T04:18:59;32.70;;;18.93;;
3311;SDS011;1668;49.648;8.570;2023-02-11T04:21:26;32.30;;;20.20;;
3311;SDS011;1668;49.648;8.570;2023-02-11T04:23:54;33.77;;;19.87;;
3311;SDS011;1668;49.648;8.570;2023-02-11T04:26:21;36.90;;;21.00;;
3311;SDS011;1668;49.648;8.570;2023-02-11T04:28:48;33.10;;;20.07;;
3311;SDS011;1668;49.648;8.570;2023-02-11T04:31:15;33.23;;;19.93;;
3311;SDS011;1668;49.648;8.570;2023-02-11T04:33:42;33.03;;;19.73;;
3311;SDS011;1668;49.648;8.570;2023-02-11T04:36:09;33.67;;;18.67;;
3311;SDS011;1668;49.648;8.570;2023-02-11T04:38:36;30.93;;;19.50;;
3311;SDS011;1668;49.648;8.570;2023-02-11T04:41:04;31.70;;;18.63;;
3311;SDS011;1668;49.648;8.570;2023-02-11T04:43:31;34.93;;;20.07;;
3311;SDS011;1668;49.648;8.570;2023-02-11T04:45:58;31.33;;;19.13;;
3311;SDS011;1668;49.648;8.570;2023-02-11T04:48:24;33.77;;;19.50;;
3311;SDS011;1668;49.648;8.570;2023-02-11T04:50:51;33.30;;;20.10;;
3311;SDS011;1668;49.648;8.570;2023-02-11T04:53:18;33.63;;;20.90;;
3311;SDS011;1668;49.648;8.570;2023-02-11T04:55:47;37.07;;;20.10;;
3311;SDS011;1668;49.648;8.570;2023-02-11T04:58:16;32.60;;;19.93;;
3311;SDS011;1668;49.648;8.570;2023-02-11T05:00:43;32.37;;;18.80;;
3311;SDS011;1668;49.648;8.570;2023-02-11T05:03:10;33.83;;;18.90;;
3311;SDS011;1668;49.648;8.570;2023-02-11T05:05:37;34.33;;;20.27;;
3311;SDS011;1668;49.648;8.570;2023-02-11T05:08:04;30.60;;;18.73;;
3311;SDS011;1668;49.648;8.570;2023-02-11T05:10:31;32.53;;;20.00;;
3311;SDS011;1668;49.648;8.570;2023-02-11T05:12:59;35.73;;;20.27;;
3311;SDS011;1668;49.648;8.570;2023-02-11T05:15:27;35.70;;;20.43;;
3311;SDS011;1668;49.648;8.570;2023-02-11T05:17:54;36.10;;;20.90;;
3311;SDS011;1668;49.648;8.570;2023-02-11T05:20:21;32.83;;;20.17;;
3311;SDS011;1668;49.648;8.570;2023-02-11T05:22:48;36.63;;;20.40;;
3311;SDS011;1668;49.648;8.570;2023-02-11T05:25:15;34.77;;;20.97;;
3311;SDS011;1668;49.648;8.570;2023-02-11T05:27:42;37.60;;;21.27;;
3311;SDS011;1668;49.648;8.570;2023-02-11T05:30:09;36.93;;;20.90;;
3311;SDS011;1668;49.648;8.570;2023-02-11T05:32:38;33.50;;;20.23;;
3311;SDS011;1668;49.648;8.570;2023-02-11T05:35:05;36.07;;;20.60;;
3311;SDS011;1668;49.648;8.570;2023-02-11T05:37:32;35.50;;;21.90;;
3311;SDS011;1668;49.648;8.570;2023-02-11T05:40:00;35.43;;;21.00;;
3311;SDS011;1668;49.648;8.570;2023-02-11T05:42:26;36.47;;;20.57;;
3311;SDS011;1668;49.648;8.570;2023-02-11T05:44:53;39.23;;;21.27;;
3311;SDS011;1668;49.648;8.570;2023-02-11T05:47:20;34.90;;;21.67;;
3311;SDS011;1668;49.648;8.570;2023-02-11T05:49:48;34.13;;;20.60;;
3311;SDS011;1668;49.648;8.570;2023-02-11T05:52:15;35.13;;;21.67;;
3311;SDS011;1668;49.648;8.570;2023-02-11T05:54:42;36.67;;;21.37;;
3311;SDS011;1668;49.648;8.570;2023-02-11T05:57:08;34.10;;;20.63;;
3311;SDS011;1668;49.648;8.570;2023-02-11T05:59:35;39.77;;;21.90;;
3311;SDS011;1668;49.648;8.570;2023-02-11T06:02:02;35.70;;;20.60;;
3311;SDS011;1668;49.648;8.570;2023-02-11T06:04:29;33.77;;;20.13;;
3311;SDS011;1668;49.648;8.570;2023-02-11T06:06:57;37.77;;;21.97;;
3311;SDS011;1668;49.648;8.570;2023-02-11T06:09:24;35.57;;;22.20;;
3311;SDS011;1668;49.648;8.570;2023-02-11T06:11:51;33.23;;;20.63;;
3311;SDS011;1668;49.648;8.570;2023-02-11T06:14:19;36.33;;;21.57;;
3311;SDS011;1668;49.648;8.570;2023-02-11T06:16:46;32.20;;;20.60;;
3311;SDS011;1668;49.648;8.570;2023-02-11T06:19:12;39.70;;;21.57;;
3311;SDS011;1668;49.648;8.570;2023-02-11T06:21:39;34.47;;;20.20;;
3311;SDS011;1668;49.648;8.570;2023-02-11T06:24:07;38.50;;;22.70;;
3311;SDS011;1668;49.648;8.570;2023-02-11T06:26:34;34.23;;;20.73;;
3311;SDS011;1668;49.648;8.570;2023-02-11T06:29:01;36.50;;;20.63;;
3311;SDS011;1668;49.648;8.570;2023-02-11T06:31:28;34.20;;;20.20;;
3311;SDS011;1668;49.648;8.570;2023-02-11T06:33:55;34.87;;;21.00;;
3311;SDS011;1668;49.648;8.570;2023-02-11T06:36:23;36.10;;;20.97;;
3311;SDS011;1668;49.648;8.570;2023-02-11T06:38:50;35.60;;;20.07;;
3311;SDS011;1668;49.648;8.570;2023-02-11T06:41:19;32.80;;;20.23;;
3311;SDS011;1668;49.648;8.570;2023-02-11T06:43:46;34.60;;;19.43;;
3311;SDS011;1668;49.648;8.570;2023-02-11T06:46:13;34.10;;;20.80;;
3311;SDS011;1668;49.648;8.570;2023-02-11T06:48:41;36.27;;;20.97;;
3311;SDS011;1668;49.648;8.570;2023-02-11T06:51:08;34.80;;;21.13;;
3311;SDS011;1668;49.648;8.570;2023-02-11T06:53:38;33.00;;;20.70;;
3311;SDS011;1668;49.648;8.570;2023-02-11T06:56:08;40.30;;;21.27;;
3311;SDS011;1668;49.648;8.570;2023-02-11T06:58:37;35.30;;;20.27;;
3311;SDS011;1668;49.648;8.570;2023-02-11T07:01:04;33.50;;;20.27;;
3311;SDS011;1668;49.648;8.570;2023-02-11T07:03:32;31.40;;;19.03;;
3311;SDS011;1668;49.648;8.570;2023-02-11T07:06:00;33.60;;;20.67;;
3311;SDS011;1668;49.648;8.570;2023-02-11T07:08:27;32.20;;;19.40;;
3311;SDS011;1668;49.648;8.570;2023-02-11T07:10:54;35.73;;;20.80;;
3311;SDS011;1668;49.648;8.570;2023-02-11T07:13:21;36.00;;;21.20;;
3311;SDS011;1668;49.648;8.570;2023-02-11T07:15:49;35.20;;;20.07;;
3311;SDS011;1668;49.648;8.570;2023-02-11T07:18:16;33.10;;;20.27;;
3311;SDS011;1668;49.648;8.570;2023-02-11T07:20:43;35.10;;;21.20;;
3311;SDS011;1668;49.648;8.570;2023-02-11T07:23:10;35.73;;;21.10;;
3311;SDS011;1668;49.648;8.570;2023-02-11T07:25:36;40.00;;;21.77;;
3311;SDS011;1668;49.648;8.570;2023-02-11T07:28:03;40.03;;;23.53;;
3311;SDS011;1668;49.648;8.570;2023-02-11T07:30:30;35.10;;;21.53;;
3311;SDS011;1668;49.648;8.570;2023-02-11T07:32:59;36.43;;;22.57;;
3311;SDS011;1668;49.648;8.570;2023-02-11T07:35:26;40.13;;;23.37;;
3311;SDS011;1668;49.648;8.570;2023-02-11T07:37:53;38.47;;;23.40;;
3311;SDS011;1668;49.648;8.570;2023-02-11T07:40:19;36.57;;;22.70;;
3311;SDS011;1668;49.648;8.570;2023-02-11T07:42:46;36.17;;;23.07;;
3311;SDS011;1668;49.648;8.570;2023-02-11T07:45:13;36.87;;;21.83;;
3311;SDS011;1668;49.648;8.570;2023-02-11T07:47:40;33.33;;;20.00;;
3311;SDS011;1668;49.648;8.570;2023-02-11T07:50:09;44.30;;;21.63;;
3311;SDS011;1668;49.648;8.570;2023-02-11T07:52:35;33.70;;;20.03;;
3311;SDS011;1668;49.648;8.570;2023-02-11T07:55:02;35.80;;;20.70;;
3311;SDS011;1668;49.648;8.570;2023-02-11T07:57:29;33.20;;;20.27;;
3311;SDS011;1668;49.648;8.570;2023-02-11T07:59:56;33.50;;;20.37;;
3311;SDS011;1668;49.648;8.570;2023-02-11T08:02:23;36.60;;;20.53;;
3311;SDS011;1668;49.648;8.570;2023-02-11T08:04:50;35.47;;;21.83;;
3311;SDS011;1668;49.648;8.570;2023-02-11T08:07:18;30.93;;;20.20;;
3311;SDS011;1668;49.648;8.570;2023-02-11T08:09:45;31.27;;;20.23;;
3311;SDS011;1668;49.648;8.570;2023-02-11T08:12:12;33.37;;;21.17;;
3311;SDS011;1668;49.648;8.570;2023-02-11T08:14:39;32.67;;;21.13;;
3311;SDS011;1668;49.648;8.570;2023-02-11T08:17:06;34.00;;;21.23;;
3311;SDS011;1668;49.648;8.570;2023-02-11T08:19:32;34.30;;;20.53;;
3311;SDS011;1668;49.648;8.570;2023-02-11T08:21:59;36.17;;;21.30;;
3311;SDS011;1668;49.648;8.570;2023-02-11T08:24:27;34.03;;;21.90;;
3311;SDS011;1668;49.648;8.570;2023-02-11T08:26:54;35.80;;;20.17;;
3311;SDS011;1668;49.648;8.570;2023-02-11T08:29:21;36.30;;;21.70;;
3311;SDS011;1668;49.648;8.570;2023-02-11T08:31:48;32.17;;;20.57;;
3311;SDS011;1668;49.648;8.570;2023-02-11T08:34:15;33.00;;;20.03;;
3311;SDS011;1668;49.648;8.570;2023-02-11T08:36:43;32.07;;;20.63;;
3311;SDS011;1668;49.648;8.570;2023-02-11T08:39:12;35.10;;;21.07;;
3311;SDS011;1668;49.648;8.570;2023-02-11T08:41:42;34.90;;;20.67;;
3311;SDS011;1668;49.648;8.570;2023-02-11T08:44:09;33.57;;;20.13;;
3311;SDS011;1668;49.648;8.570;2023-02-11T08:46:36;32.87;;;20.43;;
3311;SDS011;1668;49.648;8.570;2023-02-11T08:49:03;38.73;;;21.30;;
3311;SDS011;1668;49.648;8.570;2023-02-11T08:51:30;36.13;;;20.90;;
3311;SDS011;1668;49.648;8.570;2023-02-11T08:53:57;33.37;;;21.70;;
3311;SDS011;1668;49.648;8.570;2023-02-11T08:56:24;37.43;;;22.80;;
3311;SDS011;1668;49.648;8.570;2023-02-11T08:58:53;32.70;;;22.30;;
3311;SDS011;1668;49.648;8.570;2023-02-11T09:01:20;37.27;;;21.90;;
3311;SDS011;1668;49.648;8.570;2023-02-11T09:03:48;35.60;;;22.70;;
3311;SDS011;1668;49.648;8.570;2023-02-11T09:06:16;31.07;;;20.00;;
3311;SDS011;1668;49.648;8.570;2023-02-11T09:08:43;38.17;;;22.70;;
3311;SDS011;1668;49.648;8.570;2023-02-11T09:11:11;40.33;;;22.13;;
3311;SDS011;1668;49.648;8.570;2023-02-11T09:13:39;34.03;;;20.00;;
3311;SDS011;1668;49.648;8.570;2023-02-11T09:16:12;39.67;;;23.80;;
3311;SDS011;1668;49.648;8.570;2023-02-11T09:18:42;34.67;;;21.87;;
3311;SDS011;1668;49.648;8.570;2023-02-11T09:21:09;39.23;;;21.20;;
3311;SDS011;1668;49.648;8.570;2023-02-11T09:23:37;36.00;;;22.30;;
3311;SDS011;1668;49.648;8.570;2023-02-11T09:26:08;35.03;;;21.13;;
3311;SDS011;1668;49.648;8.570;2023-02-11T09:28:37;32.83;;;21.07;;
3311;SDS011;1668;49.648;8.570;2023-02-11T09:31:05;35.83;;;21.20;;
3311;SDS011;1668;49.648;8.570;2023-02-11T09:33:34;35.03;;;21.73;;
3311;SDS011;1668;49.648;8.570;2023-02-11T09:36:01;35.20;;;21.10;;
3311;SDS011;1668;49.648;8.570;2023-02-11T09:38:29;38.33;;;22.90;;
3311;SDS011;1668;49.648;8.570;2023-02-11T09:40:57;33.60;;;21.03;;
3311;SDS011;1668;49.648;8.570;2023-02-11T09:43:29;33.83;;;22.87;;
3311;SDS011;1668;49.648;8.570;2023-02-11T09:46:01;35.23;;;21.40;;
3311;SDS011;1668;49.648;8.570;2023-02-11T09:48:29;33.23;;;21.30;;
3311;SDS011;1668;49.648;8.570;2023-02-11T09:51:03;33.77;;;22.90;;
3311;SDS011;1668;49.648;8.570;2023-02-11T09:53:37;33.43;;;22.10;;
3311;SDS011;1668;49.648;8.570;2023-02-11T09:56:09;37.80;;;23.30;;
3311;SDS011;1668;49.648;8.570;2023-02-11T09:58:38;34.13;;;21.63;;
3311;SDS011;1668;49.648;8.570;2023-02-11T10:01:07;38.00;;;21.77;;
3311;SDS011;1668;49.648;8.570;2023-02-11T10:03:49;35.20;;;21.93;;
3311;SDS011;1668;49.648;8.570;2023-02-11T10:06:36;33.57;;;21.30;;
3311;SDS011;1668;49.648;8.570;2023-02-11T10:09:12;36.17;;;21.80;;
3311;SDS011;1668;49.648;8.570;2023-02-11T10:11:52;33.83;;;21.30;;
3311;SDS011;1668;49.648;8.570;2023-02-11T10:17:26;35.77;;;22.53;;
3311;SDS011;1668;49.648;8.570;2023-02-11T10:20:11;34.30;;;22.50;;
3311;SDS011;1668;49.648;8.570;2023-02-11T10:22:46;31.60;;;20.50;;
3311;SDS011;1668;49.648;8.570;2023-02-11T10:25:20;31.10;;;20.30;;
3311;SDS011;1668;49.648;8.570;2023-02-11T10:27:48;34.77;;;21.50;;
3311;SDS011;1668;49.648;8.570;2023-02-11T10:30:19;36.20;;;21.10;;
3311;SDS011;1668;49.648;8.570;2023-02-11T10:32:51;37.20;;;21.33;;
3311;SDS011;1668;49.648;8.570;2023-02-11T10:35:24;34.33;;;20.30;;
3311;SDS011;1668;49.648;8.570;2023-02-11T10:37:51;30.97;;;21.43;;
3311;SDS011;1668;49.648;8.570;2023-02-11T10:40:20;31.27;;;20.87;;
3311;SDS011;1668;49.648;8.570;2023-02-11T10:42:50;39.97;;;23.57;;
3311;SDS011;1668;49.648;8.570;2023-02-11T10:45:21;33.50;;;22.07;;
3311;SDS011;1668;49.648;8.570;2023-02-11T10:47:52;36.90;;;22.97;;
3311;SDS011;1668;49.648;8.570;2023-02-11T10:50:25;35.57;;;21.37;;
3311;SDS011;1668;49.648;8.570;2023-02-11T10:52:54;33.20;;;21.90;;
3311;SDS011;1668;49.648;8.570;2023-02-11T10:55:47;38.33;;;22.63;;
3311;SDS011;1668;49.648;8.570;2023-02-11T10:58:20;36.07;;;23.03;;
3311;SDS011;1668;49.648;8.570;2023-02-11T11:00:51;35.27;;;22.13;;
3311;SDS011;1668;49.648;8.570;2023-02-11T11:03:19;36.43;;;23.40;;
3311;SDS011;1668;49.648;8.570;2023-02-11T11:05:50;38.80;;;23.70;;
3311;SDS011;1668;49.648;8.570;2023-02-11T11:08:18;33.87;;;21.30;;
3311;SDS011;1668;49.648;8.570;2023-02-11T11:10:46;41.93;;;21.97;;
3311;SDS011;1668;49.648;8.570;2023-02-11T11:13:25;40.17;;;23.20;;
3311;SDS011;1668;49.648;8.570;2023-02-11T11:16:05;34.10;;;22.10;;
3311;SDS011;1668;49.648;8.570;2023-02-11T11:18:34;33.60;;;22.23;;
3311;SDS011;1668;49.648;8.570;2023-02-11T11:21:03;32.23;;;21.30;;
3311;SDS011;1668;49.648;8.570;2023-02-11T11:23:32;35.93;;;21.43;;
3311;SDS011;1668;49.648;8.570;2023-02-11T11:26:03;34.97;;;22.03;;
3311;SDS011;1668;49.648;8.570;2023-02-11T11:28:34;38.33;;;23.27;;
3311;SDS011;1668;49.648;8.570;2023-02-11T11:31:04;35.97;;;23.27;;
3311;SDS011;1668;49.648;8.570;2023-02-11T11:33:39;33.07;;;23.20;;
3311;SDS011;1668;49.648;8.570;2023-02-11T11:36:10;34.70;;;22.40;;
3311;SDS011;1668;49.648;8.570;2023-02-11T11:38:42;31.87;;;20.43;;
3311;SDS011;1668;49.648;8.570;2023-02-11T11:41:18;36.77;;;21.87;;
3311;SDS011;1668;49.648;8.570;2023-02-11T11:43:53;31.70;;;21.07;;
3311;SDS011;1668;49.648;8.570;2023-02-11T11:46:25;35.20;;;22.37;;
3311;SDS011;1668;49.648;8.570;2023-02-11T11:48:55;31.53;;;20.63;;
3311;SDS011;1668;49.648;8.570;2023-02-11T11:51:40;33.30;;;22.97;;
3311;SDS011;1668;49.648;8.570;2023-02-11T11:54:11;35.03;;;22.47;;
3311;SDS011;1668;49.648;8.570;2023-02-11T11:56:40;34.13;;;21.80;;
3311;SDS011;1668;49.648;8.570;2023-02-11T11:59:12;35.13;;;21.83;;
3311;SDS011;1668;49.648;8.570;2023-02-11T12:01:44;31.10;;;20.37;;
3311;SDS011;1668;49.648;8.570;2023-02-11T12:04:24;31.00;;;20.00;;
3311;SDS011;1668;49.648;8.570;2023-02-11T12:07:09;31.00;;;20.73;;
3311;SDS011;1668;49.648;8.570;2023-02-11T12:09:49;32.07;;;20.90;;
3311;SDS011;1668;49.648;8.570;2023-02-11T12:12:37;30.30;;;19.83;;
3311;SDS011;1668;49.648;8.570;2023-02-11T12:15:13;33.30;;;20.13;;
3311;SDS011;1668;49.648;8.570;2023-02-11T12:17:55;30.53;;;18.80;;
3311;SDS011;1668;49.648;8.570;2023-02-11T12:20:36;31.67;;;19.83;;
3311;SDS011;1668;49.648;8.570;2023-02-11T12:26:11;32.80;;;19.30;;
3311;SDS011;1668;49.648;8.570;2023-02-11T12:28:43;30.90;;;18.60;;
3311;SDS011;1668;49.648;8.570;2023-02-11T12:31:26;30.93;;;18.60;;
3311;SDS011;1668;49.648;8.570;2023-02-11T12:34:13;29.83;;;18.40;;
3311;SDS011;1668;49.648;8.570;2023-02-11T12:36:58;33.87;;;19.87;;
3311;SDS011;1668;49.648;8.570;2023-02-11T12:39:36;34.10;;;20.00;;
3311;SDS011;1668;49.648;8.570;2023-02-11T12:42:18;31.63;;;19.47;;
3311;SDS011;1668;49.648;8.570;2023-02-11T12:45:24;32.43;;;19.07;;
3311;SDS011;1668;49.648;8.570;2023-02-11T12:51:03;31.23;;;19.90;;
3311;SDS011;1668;49.648;8.570;2023-02-11T12:53:55;28.60;;;18.80;;
3311;SDS011;1668;49.648;8.570;2023-02-11T12:56:36;27.60;;;17.27;;
3311;SDS011;1668;49.648;8.570;2023-02-11T12:59:11;31.00;;;19.00;;
3311;SDS011;1668;49.648;8.570;2023-02-11T13:01:42;28.60;;;18.27;;
3311;SDS011;1668;49.648;8.570;2023-02-11T13:04:11;29.73;;;18.83;;
3311;SDS011;1668;49.648;8.570;2023-02-11T13:06:43;28.70;;;17.90;;
3311;SDS011;1668;49.648;8.570;2023-02-11T13:09:15;32.80;;;19.70;;
3311;SDS011;1668;49.648;8.570;2023-02-11T13:11:47;29.70;;;18.53;;
3311;SDS011;1668;49.648;8.570;2023-02-11T13:14:20;31.40;;;19.17;;
3311;SDS011;1668;49.648;8.570;2023-02-11T13:16:51;28.30;;;18.20;;
3311;SDS011;1668;49.648;8.570;2023-02-11T13:19:22;30.73;;;20.33;;
3311;SDS011;1668;49.648;8.570;2023-02-11T13:21:56;30.33;;;19.03;;
3311;SDS011;1668;49.648;8.570;2023-02-11T13:24:28;28.00;;;17.93;;
3311;SDS011;1668;49.648;8.570;2023-02-11T13:27:08;35.67;;;20.93;;
3311;SDS011;1668;49.648;8.570;2023-02-11T13:30:02;32.77;;;19.93;;
3311;SDS011;1668;49.648;8.570;2023-02-11T13:33:02;27.90;;;17.93;;
3311;SDS011;1668;49.648;8.570;2023-02-11T13:38:50;33.00;;;18.90;;
3311;SDS011;1668;49.648;8.570;2023-02-11T13:41:23;32.67;;;18.20;;
3311;SDS011;1668;49.648;8.570;2023-02-11T13:44:02;32.30;;;17.87;;
3311;SDS011;1668;49.648;8.570;2023-02-11T13:46:47;29.67;;;18.20;;
3311;SDS011;1668;49.648;8.570;2023-02-11T13:49:19;28.07;;;17.97;;
3311;SDS011;1668;49.648;8.570;2023-02-11T13:51:49;27.70;;;17.03;;
3311;SDS011;1668;49.648;8.570;2023-02-11T13:54:19;29.77;;;18.13;;
3311;SDS011;1668;49.648;8.570;2023-02-11T14:03:22;28.17;;;16.40;;
3311;SDS011;1668;49.648;8.570;2023-02-11T14:06:17;29.47;;;16.60;;
3311;SDS011;1668;49.648;8.570;2023-02-11T14:09:07;26.93;;;16.20;;
3311;SDS011;1668;49.648;8.570;2023-02-11T14:11:50;26.30;;;16.83;;
3311;SDS011;1668;49.648;8.570;2023-02-11T14:14:23;26.53;;;16.13;;
3311;SDS011;1668;49.648;8.570;2023-02-11T14:19:54;27.50;;;16.67;;
3311;SDS011;1668;49.648;8.570;2023-02-11T14:22:23;27.80;;;16.90;;
3311;SDS011;1668;49.648;8.570;2023-02-11T14:24:53;29.60;;;17.97;;
3311;SDS011;1668;49.648;8.570;2023-02-11T14:27:24;27.07;;;16.10;;
3311;SDS011;1668;49.648;8.570;2023-02-11T14:30:09;24.60;;;15.40;;
3311;SDS011;1668;49.648;8.570;2023-02-11T14:32:57;28.77;;;15.97;;
3311;SDS011;1668;49.648;8.570;2023-02-11T14:35:42;27.93;;;16.47;;
3311;SDS011;1668;49.648;8.570;2023-02-11T14:38:18;28.93;;;17.70;;
3311;SDS011;1668;49.648;8.570;2023-02-11T14:40:50;28.97;;;17.03;;
3311;SDS011;1668;49.648;8.570;2023-02-11T14:43:24;28.93;;;17.70;;
3311;SDS011;1668;49.648;8.570;2023-02-11T14:45:55;26.13;;;16.80;;
3311;SDS011;1668;49.648;8.570;2023-02-11T14:48:26;26.27;;;16.87;;
3311;SDS011;1668;49.648;8.570;2023-02-11T14:50:57;26.20;;;16.90;;
3311;SDS011;1668;49.648;8.570;2023-02-11T14:53:29;28.00;;;16.90;;
3311;SDS011;1668;49.648;8.570;2023-02-11T14:55:58;27.17;;;17.10;;
3311;SDS011;1668;49.648;8.570;2023-02-11T14:58:25;26.97;;;17.33;;
3311;SDS011;1668;49.648;8.570;2023-02-11T15:00:54;29.47;;;17.40;;
3311;SDS011;1668;49.648;8.570;2023-02-11T15:06:15;28.00;;;16.70;;
3311;SDS011;1668;49.648;8.570;2023-02-11T15:08:44;28.30;;;16.80;;
3311;SDS011;1668;49.648;8.570;2023-02-11T15:11:15;32.37;;;16.70;;
3311;SDS011;1668;49.648;8.570;2023-02-11T15:13:45;28.73;;;16.47;;
3311;SDS011;1668;49.648;8.570;2023-02-11T15:16:14;34.37;;;16.83;;
3311;SDS011;1668;49.648;8.570;2023-02-11T15:18:46;31.63;;;16.37;;
3311;SDS011;1668;49.648;8.570;2023-02-11T15:21:19;29.67;;;17.87;;
3311;SDS011;1668;49.648;8.570;2023-02-11T15:23:53;25.03;;;15.60;;
3311;SDS011;1668;49.648;8.570;2023-02-11T15:26:21;29.43;;;17.00;;
3311;SDS011;1668;49.648;8.570;2023-02-11T15:28:49;26.60;;;15.47;;
3311;SDS011;1668;49.648;8.570;2023-02-11T15:31:18;26.37;;;16.20;;
3311;SDS011;1668;49.648;8.570;2023-02-11T15:33:48;29.70;;;17.30;;
3311;SDS011;1668;49.648;8.570;2023-02-11T15:36:16;23.90;;;14.67;;
3311;SDS011;1668;49.648;8.570;2023-02-11T15:38:44;24.70;;;16.03;;